createdAt,value
2023-01-27T00:00:37.145Z,100393.50
2023-01-27T00:03:03.692Z,100400.34
2023-01-27T00:05:30.190Z,100399.53
2023-01-27T00:07:58.398Z,100394.03
2023-01-27T00:10:25.974Z,100393.22
2023-01-27T00:13:11.049Z,100384.19
2023-01-27T00:15:38.110Z,100382.25
2023-01-27T00:18:04.636Z,100380.91
2023-01-27T00:20:50.917Z,100394.31
2023-01-27T00:23:42.269Z,100386.91
2023-01-27T00:26:11.887Z,100380.63
2023-01-27T00:28:39.820Z,100388.84
2023-01-27T00:31:27.662Z,100379.53
2023-01-27T00:33:56.192Z,100377.06
2023-01-27T00:36:23.093Z,100377.88
2023-01-27T00:38:49.858Z,100381.72
2023-01-27T00:41:31.105Z,100380.63
2023-01-27T00:43:57.517Z,100392.38
2023-01-27T00:46:25.287Z,100394.03
2023-01-27T00:48:52.532Z,100388.84
2023-01-27T00:51:20.484Z,100393.22
2023-01-27T00:53:47.093Z,100390.19
2023-01-27T00:56:13.898Z,100390.19
2023-01-27T00:58:41.024Z,100390.47
2023-01-27T01:01:15.687Z,100388.28
2023-01-27T01:03:42.865Z,100389.91
2023-01-27T01:06:12.222Z,100394.31
2023-01-27T01:08:39.497Z,100386.38
2023-01-27T01:11:08.260Z,100389.13
2023-01-27T01:13:35.332Z,100392.13
2023-01-27T01:16:10.331Z,100392.94
2023-01-27T01:18:38.998Z,100397.31
2023-01-27T01:21:09.355Z,100394.03
2023-01-27T01:23:41.377Z,100396.78
2023-01-27T01:26:10.493Z,100394.59
2023-01-27T01:28:37.575Z,100393.78
2023-01-27T01:31:16.390Z,100392.13
2023-01-27T01:33:42.844Z,100392.94
2023-01-27T01:36:14.797Z,100390.75
2023-01-27T01:38:42.041Z,100386.09
2023-01-27T01:41:12.607Z,100385.28
2023-01-27T01:43:39.296Z,100385.81
2023-01-27T01:46:10.201Z,100388.03
2023-01-27T01:48:54.930Z,100396.78
2023-01-27T01:51:33.029Z,100392.94
2023-01-27T01:54:07.438Z,100382.56
2023-01-27T01:56:38.622Z,100386.94
2023-01-27T01:59:12.652Z,100389.13
2023-01-27T02:01:39.532Z,100388.28
2023-01-27T02:04:10.362Z,100393.22
2023-01-27T02:06:43.620Z,100394.06
2023-01-27T02:09:11.283Z,100400.34
2023-01-27T02:11:37.832Z,100401.19
2023-01-27T02:14:04.516Z,100400.34
2023-01-27T02:16:31.639Z,100401.16
2023-01-27T02:18:58.400Z,100398.97
2023-01-27T02:21:25.532Z,100401.72
2023-01-27T02:24:06.430Z,100406.63
2023-01-27T02:26:39.073Z,100402.25
2023-01-27T02:29:09.343Z,100404.44
2023-01-27T02:31:36.444Z,100397.06
2023-01-27T02:34:06.533Z,100402.25
2023-01-27T02:36:36.323Z,100402.25
2023-01-27T02:39:03.510Z,100399.50
2023-01-27T02:41:50.431Z,100405.53
2023-01-27T02:44:17.135Z,100395.69
2023-01-27T02:46:44.126Z,100408.00
2023-01-27T02:49:11.597Z,100412.91
2023-01-27T02:51:39.403Z,100417.03
2023-01-27T02:54:06.601Z,100413.47
2023-01-27T02:56:33.423Z,100416.47
2023-01-27T02:59:00.137Z,100412.13
2023-01-27T03:01:27.115Z,100420.31
2023-01-27T03:03:53.852Z,100421.41
2023-01-27T03:06:20.598Z,100419.78
2023-01-27T03:08:47.233Z,100426.31
2023-01-27T03:11:13.756Z,100415.59
2023-01-27T03:13:41.144Z,100419.22
2023-01-27T03:16:26.743Z,100415.94
2023-01-27T03:18:53.728Z,100417.00
2023-01-27T03:21:20.415Z,100417.28
2023-01-27T03:23:49.115Z,100415.09
2023-01-27T03:26:15.802Z,100413.47
2023-01-27T03:28:42.337Z,100418.13
2023-01-27T03:31:19.450Z,100419.22
2023-01-27T03:33:47.673Z,100422.22
2023-01-27T03:36:34.304Z,100414.81
2023-01-27T03:39:19.502Z,100428.78
2023-01-27T03:42:04.903Z,100425.78
2023-01-27T03:44:49.942Z,100430.97
2023-01-27T03:47:16.372Z,100430.16
2023-01-27T03:49:42.742Z,100435.31
2023-01-27T03:52:09.169Z,100433.38
2023-01-27T03:54:36.126Z,100435.06
2023-01-27T03:57:05.943Z,100430.09
2023-01-27T03:59:32.975Z,100440.78
2023-01-27T04:02:20.764Z,100428.19
2023-01-27T04:05:06.021Z,100436.66
2023-01-27T04:07:36.528Z,100441.09
2023-01-27T04:10:04.457Z,100433.97
2023-01-27T04:12:31.329Z,100439.13
2023-01-27T04:14:57.911Z,100435.91
2023-01-27T04:17:24.366Z,100437.28
2023-01-27T04:19:50.897Z,100443.31
2023-01-27T04:22:17.664Z,100436.75
2023-01-27T04:24:44.696Z,100435.91
2023-01-27T04:27:13.085Z,100430.66
2023-01-27T04:29:41.312Z,100431.75
2023-01-27T04:32:10.877Z,100438.09
2023-01-27T04:34:38.271Z,100429.59
2023-01-27T04:37:06.805Z,100424.06
2023-01-27T04:39:33.654Z,100423.03
2023-01-27T04:42:00.323Z,100423.31
2023-01-27T04:44:27.121Z,100424.13
2023-01-27T04:46:56.807Z,100430.72
2023-01-27T04:49:23.801Z,100422.50
2023-01-27T04:51:50.240Z,100421.13
2023-01-27T04:54:17.047Z,100424.34
2023-01-27T04:56:58.708Z,100420.56
2023-01-27T04:59:25.531Z,100423.03
2023-01-27T05:01:52.238Z,100424.13
2023-01-27T05:04:18.708Z,100425.72
2023-01-27T05:06:45.251Z,100421.41
2023-01-27T05:09:11.718Z,100423.03
2023-01-27T05:11:38.281Z,100424.91
2023-01-27T05:14:04.775Z,100430.16
2023-01-27T05:16:31.307Z,100428.22
2023-01-27T05:18:57.772Z,100429.63
2023-01-27T05:21:28.340Z,100427.16
2023-01-27T05:23:55.025Z,100432.63
2023-01-27T05:26:23.995Z,100425.78
2023-01-27T05:28:51.445Z,100431.75
2023-01-27T05:31:20.563Z,100438.09
2023-01-27T05:33:48.693Z,100435.63
2023-01-27T05:36:16.720Z,100436.19
2023-01-27T05:38:43.243Z,100434.81
2023-01-27T05:41:12.005Z,100440.00
2023-01-27T05:43:39.880Z,100450.94
2023-01-27T05:46:18.402Z,100456.97
2023-01-27T05:48:47.325Z,100455.63
2023-01-27T05:51:15.410Z,100467.41
2023-01-27T05:53:42.674Z,100473.16
2023-01-27T05:56:10.633Z,100472.06
2023-01-27T05:58:37.944Z,100474.81
2023-01-27T06:01:16.457Z,100472.88
2023-01-27T06:03:43.540Z,100477.25
2023-01-27T06:06:10.913Z,100468.22
2023-01-27T06:08:38.170Z,100471.78
2023-01-27T06:11:05.436Z,100480.84
2023-01-27T06:13:32.175Z,100472.88
2023-01-27T06:15:58.628Z,100487.63
2023-01-27T06:18:25.209Z,100469.88
2023-01-27T06:20:51.682Z,100472.31
2023-01-27T06:23:18.432Z,100474.25
2023-01-27T06:25:47.012Z,100475.63
2023-01-27T06:28:27.884Z,100478.91
2023-01-27T06:30:54.992Z,100483.84
2023-01-27T06:33:21.417Z,100486.84
2023-01-27T06:35:48.309Z,100494.81
2023-01-27T06:38:15.496Z,100489.31
2023-01-27T06:40:42.886Z,100490.41
2023-01-27T06:43:14.630Z,100497.56
2023-01-27T06:45:41.242Z,100491.53
2023-01-27T06:48:08.760Z,100490.97
2023-01-27T06:50:36.370Z,100489.88
2023-01-27T06:53:05.604Z,100501.09
2023-01-27T06:55:32.192Z,100499.16
2023-01-27T06:57:58.635Z,100494.53
2023-01-27T07:00:25.125Z,100500.53
2023-01-27T07:02:53.789Z,100513.41
2023-01-27T07:05:20.297Z,100513.41
2023-01-27T07:07:46.669Z,100524.63
2023-01-27T07:10:13.362Z,100515.63
2023-01-27T07:12:40.547Z,100521.03
2023-01-27T07:15:09.079Z,100518.88
2023-01-27T07:17:35.859Z,100521.31
2023-01-27T07:20:03.655Z,100521.88
2023-01-27T07:22:30.837Z,100526.81
2023-01-27T07:24:57.419Z,100520.53
2023-01-27T07:27:24.699Z,100522.44
2023-01-27T07:29:51.231Z,100523.53
2023-01-27T07:32:17.954Z,100533.13
2023-01-27T07:34:44.930Z,100524.06
2023-01-27T07:37:11.455Z,100535.28
2023-01-27T07:39:38.329Z,100529.25
2023-01-27T07:42:05.964Z,100535.03
2023-01-27T07:44:33.028Z,100540.47
2023-01-27T07:46:59.948Z,100530.66
2023-01-27T07:49:27.651Z,100533.44
2023-01-27T07:51:54.238Z,100544.09
2023-01-27T07:54:20.667Z,100539.13
2023-01-27T07:56:47.221Z,100538.28
2023-01-27T07:59:13.815Z,100552.31
2023-01-27T08:01:41.849Z,100548.47
2023-01-27T08:04:08.541Z,100547.66
2023-01-27T08:06:35.078Z,100554.22
2023-01-27T08:09:01.648Z,100550.94
2023-01-27T08:11:28.054Z,100567.34
2023-01-27T08:13:54.530Z,100566.19
2023-01-27T08:16:20.991Z,100559.38
2023-01-27T08:18:47.459Z,100573.78
2023-01-27T08:21:13.923Z,100566.03
2023-01-27T08:23:40.391Z,100564.66
2023-01-27T08:26:07.507Z,100571.72
2023-01-27T08:28:35.563Z,100580.34
2023-01-27T08:31:10.907Z,100580.72
2023-01-27T08:33:37.576Z,100578.53
2023-01-27T08:36:10.638Z,100584.00
2023-01-27T08:38:37.629Z,100584.81
2023-01-27T08:41:06.034Z,100582.66
2023-01-27T08:43:32.548Z,100579.88
2023-01-27T08:46:00.588Z,100588.97
2023-01-27T08:48:28.656Z,100578.56
2023-01-27T08:50:56.187Z,100588.44
2023-01-27T08:53:24.229Z,100581.53
2023-01-27T08:55:51.787Z,100585.41
2023-01-27T08:58:18.191Z,100581.31
2023-01-27T09:00:44.907Z,100594.72
2023-01-27T09:03:11.330Z,100592.53
2023-01-27T09:05:38.438Z,100595.56
2023-01-27T09:08:05.138Z,100595.03
2023-01-27T09:10:31.631Z,100591.19
2023-01-27T09:12:58.050Z,100596.69
2023-01-27T09:15:24.436Z,100596.69
2023-01-27T09:17:50.803Z,100595.59
2023-01-27T09:20:17.445Z,100597.09
2023-01-27T09:22:44.077Z,100595.56
2023-01-27T09:25:14.123Z,100593.09
2023-01-27T09:27:40.573Z,100598.38
2023-01-27T09:30:08.624Z,100594.00
2023-01-27T09:32:35.019Z,100608.88
2023-01-27T09:35:01.577Z,100599.28
2023-01-27T09:37:28.207Z,100611.34
2023-01-27T09:40:01.510Z,100611.38
2023-01-27T09:42:43.804Z,100609.16
2023-01-27T09:45:24.763Z,100605.91
2023-01-27T09:48:00.524Z,100610.56
2023-01-27T09:50:45.251Z,100616.06
2023-01-27T09:53:41.268Z,100620.44
2023-01-27T09:56:13.777Z,100613.53
2023-01-27T09:59:07.196Z,100611.38
2023-01-27T10:02:14.825Z,100613.03
2023-01-27T10:05:17.057Z,100605.03
2023-01-27T10:07:49.517Z,100610.56
2023-01-27T10:10:35.952Z,100613.84
2023-01-27T10:13:31.894Z,100610.31
2023-01-27T10:16:20.231Z,100610.63
2023-01-27T10:18:56.563Z,100597.19
2023-01-27T10:21:30.341Z,100610.91
2023-01-27T10:24:22.815Z,100605.97
2023-01-27T10:26:55.519Z,100609.81
2023-01-27T10:29:26.923Z,100604.03
2023-01-27T10:31:59.208Z,100598.03
2023-01-27T10:34:29.134Z,100605.91
2023-01-27T10:37:22.111Z,100613.31
2023-01-27T10:40:10.331Z,100607.84
2023-01-27T10:43:08.266Z,100610.34
2023-01-27T10:46:00.985Z,100609.22
2023-01-27T10:48:50.422Z,100606.75
2023-01-27T10:51:25.873Z,100612.00
2023-01-27T10:54:03.811Z,100600.75
2023-01-27T10:56:39.337Z,100608.16
2023-01-27T10:59:45.207Z,100604.59
2023-01-27T11:02:30.192Z,100614.47
2023-01-27T11:05:02.105Z,100622.97
2023-01-27T11:07:29.325Z,100609.53
2023-01-27T11:09:58.033Z,100615.28
2023-01-27T11:12:41.561Z,100620.78
2023-01-27T11:15:19.561Z,100610.34
2023-01-27T11:17:53.580Z,100606.78
2023-01-27T11:20:26.290Z,100612.28
2023-01-27T11:23:11.434Z,100607.91
2023-01-27T11:26:14.419Z,100609.81
2023-01-27T11:28:52.805Z,100605.69
2023-01-27T11:32:02.164Z,100603.22
2023-01-27T11:34:35.820Z,100601.31
2023-01-27T11:37:15.926Z,100605.16
2023-01-27T11:39:42.332Z,100609.81
2023-01-27T11:42:09.598Z,100595.81
2023-01-27T11:44:36.333Z,100601.59
2023-01-27T11:47:04.336Z,100594.19
2023-01-27T11:49:34.599Z,100597.47
2023-01-27T11:52:06.024Z,100594.47
2023-01-27T11:55:15.491Z,100599.13
2023-01-27T11:57:43.627Z,100595.28
2023-01-27T12:00:24.171Z,100585.97
2023-01-27T12:03:05.836Z,100589.75
2023-01-27T12:05:34.318Z,100586.47
2023-01-27T12:08:02.533Z,100581.81
2023-01-27T12:10:34.864Z,100576.06
2023-01-27T12:13:09.421Z,100580.44
2023-01-27T12:15:36.786Z,100566.75
2023-01-27T12:18:14.509Z,100559.34
2023-01-27T12:20:43.788Z,100566.72
2023-01-27T12:23:47.317Z,100557.38
2023-01-27T12:26:13.839Z,100556.81
2023-01-27T12:28:43.793Z,100557.38
2023-01-27T12:31:13.365Z,100562.91
2023-01-27T12:33:44.384Z,100559.34
2023-01-27T12:36:14.720Z,100562.09
2023-01-27T12:38:46.287Z,100562.63
2023-01-27T12:41:21.137Z,100559.88
2023-01-27T12:43:53.119Z,100559.88
2023-01-27T12:46:27.774Z,100564.84
2023-01-27T12:49:02.812Z,100556.59
2023-01-27T12:51:55.518Z,100561.84
2023-01-27T12:54:25.941Z,100563.47
2023-01-27T12:56:53.758Z,100557.41
2023-01-27T12:59:22.974Z,100556.31
2023-01-27T13:02:02.655Z,100556.88
2023-01-27T13:04:29.634Z,100553.31
2023-01-27T13:07:02.123Z,100552.50
2023-01-27T13:09:35.933Z,100552.75
2023-01-27T13:12:10.924Z,100557.69
2023-01-27T13:14:40.695Z,100558.25
2023-01-27T13:17:25.948Z,100548.63
2023-01-27T13:19:54.510Z,100549.72
2023-01-27T13:22:21.648Z,100564.50
2023-01-27T13:24:51.909Z,100560.66
2023-01-27T13:27:20.597Z,100566.69
2023-01-27T13:29:57.819Z,100569.97
2023-01-27T13:32:29.647Z,100553.53
2023-01-27T13:35:08.583Z,100550.22
2023-01-27T13:37:44.078Z,100555.44
2023-01-27T13:40:22.669Z,100558.47
2023-01-27T13:42:58.617Z,100559.28
2023-01-27T13:45:28.728Z,100563.16
2023-01-27T13:48:18.123Z,100557.94
2023-01-27T13:50:52.030Z,100557.66
2023-01-27T13:53:19.659Z,100559.31
2023-01-27T13:56:07.616Z,100561.47
2023-01-27T13:58:37.491Z,100561.19
2023-01-27T14:01:18.340Z,100561.47
2023-01-27T14:04:04.876Z,100565.00
2023-01-27T14:06:35.910Z,100561.19
2023-01-27T14:09:25.609Z,100560.94
2023-01-27T14:12:34.671Z,100554.34
2023-01-27T14:15:35.033Z,100557.38
2023-01-27T14:18:12.390Z,100558.44
2023-01-27T14:20:51.823Z,100568.88
2023-01-27T14:23:36.638Z,100576.59
2023-01-27T14:26:16.155Z,100583.72
2023-01-27T14:28:58.053Z,100578.22
2023-01-27T14:31:33.633Z,100580.97
2023-01-27T14:34:36.164Z,100587.56
2023-01-27T14:37:15.179Z,100584.03
2023-01-27T14:39:48.340Z,100591.16
2023-01-27T14:42:29.061Z,100598.56
2023-01-27T14:45:33.529Z,100593.38
2023-01-27T14:48:40.352Z,100593.66
2023-01-27T14:51:24.308Z,100593.66
2023-01-27T14:54:12.198Z,100599.69
2023-01-27T14:56:53.920Z,100598.03
2023-01-27T14:59:58.662Z,100601.63
2023-01-27T15:02:44.657Z,100599.97
2023-01-27T15:05:35.799Z,100601.34
2023-01-27T15:08:25.192Z,100600.78
2023-01-27T15:10:58.929Z,100610.94
2023-01-27T15:13:46.185Z,100619.44
2023-01-27T15:16:27.709Z,100616.69
2023-01-27T15:19:00.269Z,100605.72
2023-01-27T15:21:48.826Z,100611.47
2023-01-27T15:24:25.537Z,100613.41
2023-01-27T15:26:53.295Z,100617.78
2023-01-27T15:29:25.505Z,100618.34
2023-01-27T15:32:11.978Z,100624.91
2023-01-27T15:34:38.515Z,100628.22
2023-01-27T15:37:23.216Z,100630.41
2023-01-27T15:40:15.520Z,100622.72
2023-01-27T15:42:55.425Z,100617.53
2023-01-27T15:45:29.093Z,100619.44
2023-01-27T15:48:18.049Z,100614.22
2023-01-27T15:50:48.437Z,100621.34
2023-01-27T15:53:17.368Z,100621.34
2023-01-27T15:55:53.414Z,100621.63
2023-01-27T15:58:31.383Z,100620.81
2023-01-27T16:00:58.505Z,100635.91
2023-01-27T16:03:34.727Z,100627.13
2023-01-27T16:06:16.980Z,100631.78
2023-01-27T16:08:47.189Z,100624.91
2023-01-27T16:11:28.882Z,100623.81
2023-01-27T16:14:14.371Z,100628.75
2023-01-27T16:16:45.710Z,100636.19
2023-01-27T16:19:22.782Z,100641.66
2023-01-27T16:22:15.407Z,100642.75
2023-01-27T16:25:02.875Z,100646.34
2023-01-27T16:27:41.402Z,100641.13
2023-01-27T16:30:54.277Z,100646.34
2023-01-27T16:33:31.975Z,100639.75
2023-01-27T16:36:05.647Z,100645.50
2023-01-27T16:38:37.189Z,100645.22
2023-01-27T16:41:15.204Z,100649.91
2023-01-27T16:43:52.305Z,100660.06
2023-01-27T16:46:30.850Z,100651.81
2023-01-27T16:48:57.286Z,100660.06
2023-01-27T16:51:26.307Z,100657.03
2023-01-27T16:53:54.428Z,100666.91
2023-01-27T16:56:25.040Z,100666.59
2023-01-27T16:58:53.400Z,100668.53
2023-01-27T17:01:36.971Z,100666.09
2023-01-27T17:04:18.079Z,100664.94
2023-01-27T17:06:46.073Z,100667.69
2023-01-27T17:09:23.426Z,100680.31
2023-01-27T17:11:49.910Z,100678.66
2023-01-27T17:14:29.935Z,100679.47
2023-01-27T17:16:59.208Z,100683.03
2023-01-27T17:19:32.101Z,100681.94
2023-01-27T17:21:59.787Z,100685.22
2023-01-27T17:24:31.938Z,100689.88
2023-01-27T17:27:09.296Z,100684.41
2023-01-27T17:29:39.873Z,100678.94
2023-01-27T17:32:25.231Z,100684.94
2023-01-27T17:34:56.294Z,100683.59
2023-01-27T17:37:24.257Z,100689.91
2023-01-27T17:40:02.122Z,100702.50
2023-01-27T17:42:31.055Z,100700.03
2023-01-27T17:45:26.215Z,100700.59
2023-01-27T17:47:53.068Z,100699.78
2023-01-27T17:50:22.084Z,100710.19
2023-01-27T17:52:52.774Z,100709.63
2023-01-27T17:55:22.362Z,100700.06
2023-01-27T17:57:50.683Z,100709.38
2023-01-27T18:00:33.599Z,100709.13
2023-01-27T18:03:04.367Z,100709.13
2023-01-27T18:05:33.006Z,100701.13
2023-01-27T18:08:00.053Z,100709.38
2023-01-27T18:10:36.938Z,100709.91
2023-01-27T18:13:15.877Z,100707.19
2023-01-27T18:15:47.683Z,100711.84
2023-01-27T18:18:23.137Z,100711.03
2023-01-27T18:20:53.795Z,100715.69
2023-01-27T18:23:25.791Z,100716.78
2023-01-27T18:26:07.248Z,100705.25
2023-01-27T18:28:36.293Z,100710.47
2023-01-27T18:31:03.093Z,100711.84
2023-01-27T18:33:32.684Z,100721.72
2023-01-27T18:36:00.611Z,100719.25
2023-01-27T18:38:31.177Z,100722.81
2023-01-27T18:41:12.251Z,100725.84
2023-01-27T18:43:38.769Z,100733.78
2023-01-27T18:46:09.493Z,100729.69
2023-01-27T18:48:37.808Z,100739.28
2023-01-27T18:51:12.491Z,100743.41
2023-01-27T18:53:38.882Z,100746.41
2023-01-27T18:56:07.762Z,100746.16
2023-01-27T18:58:35.406Z,100751.41
2023-01-27T19:01:02.095Z,100748.63
2023-01-27T19:03:30.624Z,100761.25
2023-01-27T19:05:57.147Z,100754.91
2023-01-27T19:08:24.729Z,100752.75
2023-01-27T19:10:52.514Z,100748.91
2023-01-27T19:13:19.242Z,100756.06
2023-01-27T19:15:51.728Z,100751.97
2023-01-27T19:18:24.891Z,100749.44
2023-01-27T19:20:51.970Z,100751.13
2023-01-27T19:23:19.885Z,100754.66
2023-01-27T19:25:49.380Z,100756.63
2023-01-27T19:28:36.901Z,100764.88
2023-01-27T19:31:03.828Z,100758.81
2023-01-27T19:33:33.310Z,100761.50
2023-01-27T19:36:02.972Z,100763.69
2023-01-27T19:38:30.098Z,100766.44
2023-01-27T19:40:57.005Z,100771.38
2023-01-27T19:43:23.462Z,100763.94
2023-01-27T19:45:50.101Z,100763.09
2023-01-27T19:48:22.847Z,100759.81
2023-01-27T19:50:51.140Z,100763.69
2023-01-27T19:53:18.845Z,100765.06
2023-01-27T19:55:46.816Z,100768.97
2023-01-27T19:58:21.277Z,100770.84
2023-01-27T20:00:48.032Z,100773.63
2023-01-27T20:03:14.650Z,100769.78
2023-01-27T20:05:41.384Z,100771.69
2023-01-27T20:08:12.949Z,100776.06
2023-01-27T20:10:39.349Z,100775.28
2023-01-27T20:13:07.030Z,100779.63
2023-01-27T20:15:37.299Z,100782.38
2023-01-27T20:18:04.238Z,100773.28
2023-01-27T20:20:30.697Z,100782.88
2023-01-27T20:22:57.369Z,100784.53
2023-01-27T20:25:26.558Z,100782.06
2023-01-27T20:27:56.097Z,100780.44
2023-01-27T20:30:25.191Z,100792.50
2023-01-27T20:32:53.795Z,100788.94
2023-01-27T20:35:22.182Z,100791.16
2023-01-27T20:37:49.966Z,100793.34
2023-01-27T20:40:19.331Z,100791.16
2023-01-27T20:42:45.938Z,100785.97
2023-01-27T20:45:12.986Z,100785.97
2023-01-27T20:47:39.819Z,100788.47
2023-01-27T20:50:07.392Z,100789.28
2023-01-27T20:52:37.743Z,100786.00
2023-01-27T20:55:04.915Z,100787.38
2023-01-27T20:57:31.828Z,100791.22
2023-01-27T21:00:01.344Z,100795.63
2023-01-27T21:02:31.497Z,100788.22
2023-01-27T21:04:58.041Z,100789.59
2023-01-27T21:07:24.959Z,100794.78
2023-01-27T21:09:53.407Z,100795.06
2023-01-27T21:12:21.060Z,100790.41
2023-01-27T21:14:47.508Z,100791.50
2023-01-27T21:17:13.985Z,100793.97
2023-01-27T21:19:40.466Z,100790.13
2023-01-27T21:22:06.952Z,100790.69
2023-01-27T21:24:33.568Z,100781.63
2023-01-27T21:27:00.033Z,100795.91
2023-01-27T21:29:26.695Z,100792.88
2023-01-27T21:31:53.440Z,100784.63
2023-01-27T21:34:20.200Z,100791.78
2023-01-27T21:36:46.637Z,100785.16
2023-01-27T21:39:13.018Z,100793.13
2023-01-27T21:41:54.739Z,100790.13
2023-01-27T21:44:42.541Z,100796.16
2023-01-27T21:47:11.072Z,100796.44
2023-01-27T21:49:57.745Z,100793.69
2023-01-27T21:52:25.884Z,100794.25
2023-01-27T21:54:52.516Z,100798.34
2023-01-27T21:57:18.994Z,100795.06
2023-01-27T21:59:45.471Z,100796.19
2023-01-27T22:02:13.087Z,100787.38
2023-01-27T22:04:46.387Z,100792.31
2023-01-27T22:07:14.776Z,100796.19
2023-01-27T22:09:41.356Z,100786.03
2023-01-27T22:12:09.697Z,100795.06
2023-01-27T22:14:36.454Z,100791.50
2023-01-27T22:17:04.046Z,100784.09
2023-01-27T22:19:30.880Z,100785.47
2023-01-27T22:21:57.493Z,100789.03
2023-01-27T22:24:24.447Z,100788.22
2023-01-27T22:26:51.352Z,100790.16
2023-01-27T22:29:17.775Z,100785.75
2023-01-27T22:31:44.300Z,100788.50
2023-01-27T22:34:11.126Z,100790.69
2023-01-27T22:36:37.514Z,100785.78
2023-01-27T22:39:04.653Z,100781.91
2023-01-27T22:41:31.598Z,100788.50
2023-01-27T22:43:57.997Z,100781.91
2023-01-27T22:46:24.596Z,100788.22
2023-01-27T22:48:51.219Z,100786.56
2023-01-27T22:51:17.788Z,100785.47
2023-01-27T22:53:44.212Z,100793.44
2023-01-27T22:56:10.643Z,100789.03
2023-01-27T22:58:37.111Z,100784.63
2023-01-27T23:01:07.364Z,100789.03
2023-01-27T23:03:34.123Z,100787.94
2023-01-27T23:06:05.400Z,100789.31
2023-01-27T23:08:32.792Z,100788.47
2023-01-27T23:11:01.524Z,100784.38
2023-01-27T23:13:29.174Z,100790.13
2023-01-27T23:15:55.966Z,100785.47
2023-01-27T23:18:23.370Z,100788.47
2023-01-27T23:20:50.029Z,100787.66
2023-01-27T23:23:16.858Z,100791.22
2023-01-27T23:25:45.185Z,100789.56
2023-01-27T23:28:13.010Z,100786.81
2023-01-27T23:30:46.024Z,100782.69
2023-01-27T23:33:13.567Z,100787.66
2023-01-27T23:35:40.327Z,100789.00
2023-01-27T23:38:16.356Z,100777.69
2023-01-27T23:40:45.913Z,100777.97
2023-01-27T23:43:23.735Z,100782.63
2023-01-27T23:45:52.189Z,100783.44
2023-01-27T23:48:19.703Z,100781.81
2023-01-27T23:50:46.433Z,100782.13
2023-01-27T23:53:13.223Z,100778.50
2023-01-27T23:55:57.842Z,100789.47
2023-01-27T23:58:24.761Z,100790.28
